Algonac, MI

4:02 PM EST on February 14, 2016 (GMT -0500)
Swan Creek | | Change Station
CLOSE
Current Station
Personal Weather Station
Location: Michigan, MI
Elevation: 584 ft
Nearby Weather Stations

Elev 584 ft 42.68 °N, 82.65 °W | Updated 10 minutes ago

Mostly Cloudy
Mostly Cloudy
17.3 °F
Feels Like 11 °F
N
4.0
Wind Variable Wind from SE
Gusts 10.0 mph

Today
High -- | Low -- °F
--% Chance of Precip.
Yesterday
High -- | Low -- °F
Precip. -- in
Pressure 30.38 in
Visibility 10.0 miles
Clouds Scattered Clouds 3200 ft
Mostly Cloudy 20000 ft
Windchill 11 °F
Dew Point 7 °F
Humidity 63%
Rainfall 0.00 in
Snow Depth Not available.
7:29 AM 6:00 PM
Waxing Crescent, 45% visible
METAR KMTC 142058Z 14011KT 10SM SCT032 BKN200 M09/M15 A3033 RMK AO2A SLP288 T10891153 58017 $
Pressure 30.38 in
Visibility 10.0 miles
Clouds Scattered Clouds 3200 ft
Mostly Cloudy 20000 ft
Windchill 11 °F
Dew Point 7 °F
Humidity 63%
Rainfall 0.00 in
Snow Depth Not available.
7:29 AM 6:00 PM
Waxing Crescent, 45% visible
METAR KMTC 142058Z 14011KT 10SM SCT032 BKN200 M09/M15 A3033 RMK AO2A SLP288 T10891153 58017 $

10-Day Weather Forecast

Almanac

Astronomy

Feb. 14, 2016 Rise Set
Actual Time
Civil Twilight
Nautical Twilight
Astronomical Twilight
Moon
Length of Visible Light
Length of Day
Tomorrow will be .
, % of the Moon is Illuminated

Today's Extremes

State Highs State Lows

Community

WunderPhotos

Upload Photos

1,892,885 photos uploaded!

WunderBlog® & News

Nearby

Air Quality

  Air Quality AQ Index Pollutant
Not available.

Snow Depth

Station Depth Elevation

Earthquake Activity

City Distance Mag. Time & Date
Minimum magnitude displayed is 2.5.

Coastal Water Temperatures

Place Temperature

Stations

Nearby Weather Stations

Station Location Temp. Windchill Dew Point Humidity Wind Precip. Elev Updated Type
                   

Watches & Warnings

There are currently no watches in effect.